GBYD/BJL METAR and TAF weather

Enter ICAO airport designator
Station Type Date Time Source
GBYD METAR 2020/11/28 19:00 UTC NOAA

GBYD 281900Z 30004KT 9999 SCT110 25/20 Q1011


Station Type Date Time Source
GBYD Decoded METAR 2020/11/28 19:00 UTC NOAA

Banjul / Yundum, Gambia, The (GBYD) 13-21N 016-48W 36M
Nov 28, 2020 - 02:00 PM EST / 2020.11.28 1900 UTC
Wind: from the WNW (300 degrees) at 5 MPH (4 KT):0
Visibility: greater than 7 mile(s):0
Sky conditions: partly cloudy
Temperature: 77 F (25 C)
Dew Point: 68 F (20 C)
Relative Humidity: 73%
Pressure (altimeter): 29.85 in. Hg (1011 hPa)
ob: GBYD 281900Z 30004KT 9999 SCT110 25/20 Q1011
cycle: 19

Station Type Date Time Source
GBYD TAF 2020/11/28 18:24 UTC NOAA

TAF TAF GBYD 281730Z 2818/2924 35008KT CAVOK

Example: see airport list